Time;durP1;ratioP1;P1;durP2;ratioP2;P2;SDS_P1;SDS_P2;PMS_P1;PMS_P2;Temp;Humidity;BMP_temperature;BMP_pressure;BME280_temperature;BME280_humidity;BME280_pressure;Samples;Min_cycle;Max_cycle;Signal;HPM_P1;HPM_P2
2023/05/18 00:00:59;;;;;;;26.73;16.40;;;;;;;;;;4369782;32;59331;-61
2023/05/18 00:03:47;;;;;;;26.30;15.43;;;;;;;;;;4357838;32;70928;-61
2023/05/18 00:06:34;;;;;;;24.35;15.02;;;;;;;;;;4357479;32;68302;-62
2023/05/18 00:09:21;;;;;;;23.67;15.32;;;;;;;;;;4357603;32;67526;-62
2023/05/18 00:12:11;;;;;;;26.60;15.63;;;;;;;;;;4346564;32;71726;-62
2023/05/18 00:14:57;;;;;;;22.92;15.23;;;;;;;;;;4368700;32;66651;-62
2023/05/18 00:17:44;;;;;;;24.17;15.10;;;;;;;;;;4346812;32;67162;-62
2023/05/18 00:20:31;;;;;;;24.20;15.05;;;;;;;;;;4357190;32;67290;-61
2023/05/18 00:23:18;;;;;;;27.90;15.18;;;;;;;;;;4357051;32;71334;-62
2023/05/18 00:26:05;;;;;;;23.87;15.82;;;;;;;;;;4357526;32;66250;-62
2023/05/18 00:28:51;;;;;;;26.77;16.23;;;;;;;;;;4357356;32;68092;-62
2023/05/18 00:31:39;;;;;;;23.48;15.90;;;;;;;;;;4358272;32;59970;-62
2023/05/18 00:34:26;;;;;;;23.52;15.10;;;;;;;;;;4358184;32;70688;-62
2023/05/18 00:37:13;;;;;;;24.40;15.35;;;;;;;;;;4368120;32;69120;-61
2023/05/18 00:40:05;;;;;;;27.85;17.40;;;;;;;;;;4357640;32;67484;-64
2023/05/18 00:42:52;;;;;;;26.65;16.52;;;;;;;;;;4368792;32;60662;-63
2023/05/18 00:45:38;;;;;;;29.08;15.88;;;;;;;;;;4346976;32;69698;-63
2023/05/18 00:48:25;;;;;;;27.23;16.45;;;;;;;;;;4346172;32;69656;-62
2023/05/18 00:51:12;;;;;;;23.85;15.27;;;;;;;;;;4367766;32;67562;-63
2023/05/18 00:53:59;;;;;;;23.40;16.62;;;;;;;;;;4357140;32;70922;-61
2023/05/18 00:56:47;;;;;;;25.23;15.88;;;;;;;;;;4357139;32;66643;-62
2023/05/18 00:59:35;;;;;;;28.40;16.55;;;;;;;;;;4357132;32;66833;-60
2023/05/18 01:02:22;;;;;;;29.08;16.67;;;;;;;;;;4367419;32;60205;-62
2023/05/18 01:05:10;;;;;;;28.35;16.67;;;;;;;;;;4346216;32;71050;-61
2023/05/18 01:07:56;;;;;;;29.02;16.85;;;;;;;;;;4335247;32;67955;-62
2023/05/18 01:10:44;;;;;;;29.08;17.25;;;;;;;;;;4356135;32;68330;-61
2023/05/18 01:13:40;;;;;;;27.50;17.42;;;;;;;;;;4356608;32;60525;-62
2023/05/18 01:16:36;;;;;;;30.55;17.45;;;;;;;;;;4356704;32;69725;-62
2023/05/18 01:19:51;;;;;;;27.58;16.52;;;;;;;;;;4368037;32;69425;-62
2023/05/18 01:22:55;;;;;;;28.70;18.00;;;;;;;;;;4344445;32;68115;-62
2023/05/18 01:25:54;;;;;;;31.75;18.20;;;;;;;;;;4367035;32;70874;-62
2023/05/18 01:28:45;;;;;;;26.95;17.58;;;;;;;;;;4368228;32;67416;-62
2023/05/18 01:31:32;;;;;;;26.15;16.52;;;;;;;;;;4355819;32;67424;-62
2023/05/18 01:34:22;;;;;;;29.37;17.77;;;;;;;;;;4356875;32;66478;-61
2023/05/18 01:37:08;;;;;;;29.85;17.85;;;;;;;;;;4345765;32;72249;-61
2023/05/18 01:39:55;;;;;;;29.40;18.00;;;;;;;;;;4356638;32;65593;-61
2023/05/18 01:42:46;;;;;;;29.60;17.75;;;;;;;;;;4356747;32;67081;-61
2023/05/18 01:45:32;;;;;;;24.77;16.30;;;;;;;;;;4366802;32;60341;-63
2023/05/18 01:48:21;;;;;;;29.95;17.92;;;;;;;;;;4345779;32;70627;-62
2023/05/18 01:51:11;;;;;;;26.95;16.35;;;;;;;;;;4366970;32;69311;-63
2023/05/18 01:54:04;;;;;;;28.87;17.17;;;;;;;;;;4356445;32;67858;-63
2023/05/18 01:56:52;;;;;;;26.58;16.55;;;;;;;;;;4367036;32;71838;-62
2023/05/18 01:59:40;;;;;;;27.05;17.35;;;;;;;;;;4355927;32;70675;-62
2023/05/18 02:03:04;;;;;;;26.73;16.55;;;;;;;;;;4356275;32;68624;-61
2023/05/18 02:05:52;;;;;;;29.35;18.00;;;;;;;;;;4366430;32;67482;-62
2023/05/18 02:08:39;;;;;;;28.98;17.92;;;;;;;;;;4355797;32;71670;-62
2023/05/18 02:11:26;;;;;;;32.42;18.77;;;;;;;;;;4345352;32;66566;-61
2023/05/18 02:14:13;;;;;;;28.92;17.55;;;;;;;;;;4365996;32;67600;-62
2023/05/18 02:16:59;;;;;;;27.87;17.98;;;;;;;;;;4356160;32;59176;-62
2023/05/18 02:19:46;;;;;;;28.60;16.62;;;;;;;;;;4345231;32;70743;-62
2023/05/18 02:22:35;;;;;;;29.73;17.75;;;;;;;;;;4365658;32;70663;-62
2023/05/18 02:25:43;;;;;;;30.15;17.67;;;;;;;;;;4357865;32;67983;-61
2023/05/18 02:28:30;;;;;;;29.10;17.17;;;;;;;;;;4356165;32;59897;-61
2023/05/18 02:31:16;;;;;;;33.38;17.85;;;;;;;;;;4355842;32;69643;-62
2023/05/18 02:34:03;;;;;;;;;;;;;;;;;;4355515;32;69754;-62
2023/05/18 02:36:52;;;;;;;30.42;18.27;;;;;;;;;;4366528;32;67830;-62
2023/05/18 02:39:39;;;;;;;27.90;19.12;;;;;;;;;;4355528;32;70750;-62
2023/05/18 02:42:25;;;;;;;25.70;15.80;;;;;;;;;;4355589;32;65122;-62
2023/05/18 02:45:14;;;;;;;26.08;16.80;;;;;;;;;;4366383;32;67149;-62
2023/05/18 02:48:02;;;;;;;24.92;16.40;;;;;;;;;;4366288;32;59319;-61
2023/05/18 02:50:49;;;;;;;25.02;15.77;;;;;;;;;;4344891;32;71554;-62
2023/05/18 02:53:36;;;;;;;26.37;16.25;;;;;;;;;;4347487;32;65965;-62
2023/05/18 02:56:24;;;;;;;29.12;17.52;;;;;;;;;;4355786;32;68957;-62
2023/05/18 02:59:11;;;;;;;32.72;19.05;;;;;;;;;;4348013;32;58967;-62
2023/05/18 03:02:37;;;;;;;27.37;15.73;;;;;;;;;;4362331;32;71472;-62
2023/05/18 03:05:25;;;;;;;23.95;13.45;;;;;;;;;;4369539;32;68323;-62
2023/05/18 03:08:13;;;;;;;27.45;16.35;;;;;;;;;;4363691;32;66837;-63
2023/05/18 03:11:00;;;;;;;26.00;17.48;;;;;;;;;;4372269;32;70425;-63
2023/05/18 03:13:46;;;;;;;27.73;16.87;;;;;;;;;;4362415;32;69994;-63
2023/05/18 03:16:37;;;;;;;27.60;17.00;;;;;;;;;;4347836;32;69281;-62
2023/05/18 03:19:26;;;;;;;23.08;14.90;;;;;;;;;;4358698;32;66715;-62
2023/05/18 03:22:13;;;;;;;18.60;9.73;;;;;;;;;;4347807;32;70406;-62
2023/05/18 03:25:01;;;;;;;13.82;7.97;;;;;;;;;;4358376;32;66554;-62
2023/05/18 03:27:48;;;;;;;30.23;16.60;;;;;;;;;;4358388;32;67778;-62
2023/05/18 03:30:34;;;;;;;;;;;;;;;;;;4348115;32;60341;-62
2023/05/18 03:33:21;;;;;;;20.27;13.77;;;;;;;;;;4357101;32;70861;-63
2023/05/18 03:36:11;;;;;;;22.92;13.05;;;;;;;;;;4368379;32;68392;-62
2023/05/18 03:39:01;;;;;;;22.85;15.65;;;;;;;;;;4357525;32;68829;-62
2023/05/18 03:41:50;;;;;;;24.67;13.55;;;;;;;;;;4358346;32;60497;-62
2023/05/18 03:44:37;;;;;;;20.65;13.27;;;;;;;;;;4357470;32;69768;-62
2023/05/18 03:47:24;;;;;;;25.08;15.85;;;;;;;;;;4357943;32;69334;-63
2023/05/18 03:50:11;;;;;;;23.48;16.10;;;;;;;;;;4356760;32;68274;-62
2023/05/18 03:52:58;;;;;;;;;;;;;;;;;;4358356;32;72370;-62
2023/05/18 03:55:48;;;;;;;21.02;14.70;;;;;;;;;;4368389;32;66449;-62
2023/05/18 03:58:35;;;;;;;23.42;13.80;;;;;;;;;;4367963;32;68058;-61
2023/05/18 04:01:22;;;;;;;23.40;13.90;;;;;;;;;;4357648;32;59364;-63
2023/05/18 04:04:16;;;;;;;22.73;14.90;;;;;;;;;;4357624;32;70824;-62
2023/05/18 04:07:04;;;;;;;22.33;14.05;;;;;;;;;;4368427;32;65132;-62
2023/05/18 04:09:52;;;;;;;18.67;11.12;;;;;;;;;;4367195;32;68435;-62
2023/05/18 04:12:39;;;;;;;18.02;10.77;;;;;;;;;;4356995;32;60727;-62
2023/05/18 04:15:26;;;;;;;24.75;13.95;;;;;;;;;;4357630;32;70638;-62
2023/05/18 04:18:15;;;;;;;18.77;10.68;;;;;;;;;;4356024;32;70246;-61
2023/05/18 04:21:05;;;;;;;19.27;11.52;;;;;;;;;;4359741;32;67677;-62
2023/05/18 04:23:51;;;;;;;22.92;14.18;;;;;;;;;;4367499;32;71791;-62
2023/05/18 04:26:38;;;;;;;25.52;11.45;;;;;;;;;;4347286;32;66110;-62
2023/05/18 04:29:26;;;;;;;22.65;13.48;;;;;;;;;;4346597;32;68368;-62
2023/05/18 04:32:17;;;;;;;22.17;13.50;;;;;;;;;;4356767;32;68126;-61
2023/05/18 04:35:08;;;;;;;20.45;14.68;;;;;;;;;;4346653;32;71759;-61
2023/05/18 04:37:55;;;;;;;21.77;11.77;;;;;;;;;;4367494;32;66371;-62
2023/05/18 04:40:42;;;;;;;;;;;;;;;;;;4367880;32;67113;-62
2023/05/18 04:43:29;;;;;;;16.83;10.52;;;;;;;;;;4357517;32;59040;-62
2023/05/18 04:46:16;;;;;;;25.05;14.55;;;;;;;;;;4356585;32;68010;-62
2023/05/18 04:49:03;;;;;;;22.40;14.18;;;;;;;;;;4356900;32;69328;-62
2023/05/18 04:51:57;;;;;;;23.45;14.02;;;;;;;;;;4367220;32;67884;-63
2023/05/18 04:54:45;;;;;;;23.23;13.45;;;;;;;;;;4367761;32;59390;-62
2023/05/18 04:57:31;;;;;;;;;;;;;;;;;;4367453;32;70573;-61
2023/05/18 05:00:20;;;;;;;26.60;14.85;;;;;;;;;;4367507;32;69679;-61
2023/05/18 05:03:08;;;;;;;24.48;14.27;;;;;;;;;;4367141;32;67481;-61
2023/05/18 05:05:57;;;;;;;20.45;13.50;;;;;;;;;;4367020;32;70942;-62
2023/05/18 05:08:44;;;;;;;26.95;13.60;;;;;;;;;;4356651;32;66364;-62
2023/05/18 05:11:31;;;;;;;;;;;;;;;;;;4356411;32;68574;-61
2023/05/18 05:14:17;;;;;;;19.12;11.10;;;;;;;;;;4367128;32;60053;-62
2023/05/18 05:17:04;;;;;;;;;;;;;;;;;;4368524;32;70433;-61
2023/05/18 05:19:53;;;;;;;20.75;12.32;;;;;;;;;;4366583;32;66757;-62
2023/05/18 05:22:40;;;;;;;23.25;14.80;;;;;;;;;;4367166;32;67137;-62
2023/05/18 05:25:28;;;;;;;21.48;14.00;;;;;;;;;;4356870;32;60387;-62
2023/05/18 05:28:15;;;;;;;19.85;12.52;;;;;;;;;;4357064;32;70822;-62
2023/05/18 05:31:03;;;;;;;25.15;12.07;;;;;;;;;;4357286;32;68286;-61
2023/05/18 05:33:49;;;;;;;21.77;11.98;;;;;;;;;;4357950;32;66701;-61
2023/05/18 05:36:36;;;;;;;;;;;;;;;;;;4356669;32;71466;-62
2023/05/18 05:39:23;;;;;;;14.48;9.50;;;;;;;;;;4356313;32;68684;-62
2023/05/18 05:42:10;;;;;;;17.00;9.52;;;;;;;;;;4356507;32;69155;-61
2023/05/18 05:44:57;;;;;;;14.45;8.98;;;;;;;;;;4366762;32;67882;-63
2023/05/18 05:47:45;;;;;;;17.77;11.85;;;;;;;;;;4378817;32;70781;-62
2023/05/18 05:50:32;;;;;;;19.40;9.70;;;;;;;;;;4357326;32;65744;-62
2023/05/18 05:53:22;;;;;;;18.12;8.77;;;;;;;;;;4356308;32;66927;-63
2023/05/18 05:56:09;;;;;;;19.92;8.82;;;;;;;;;;4356646;32;60777;-62
2023/05/18 05:58:56;;;;;;;15.85;8.35;;;;;;;;;;4356200;32;70149;-61
2023/05/18 06:01:43;;;;;;;15.70;8.55;;;;;;;;;;4356016;32;68182;-62
2023/05/18 06:04:30;;;;;;;22.08;9.40;;;;;;;;;;4355489;32;68970;-63
2023/05/18 06:07:17;;;;;;;17.73;7.85;;;;;;;;;;4356435;32;60083;-60
2023/05/18 06:10:05;;;;;;;17.17;7.43;;;;;;;;;;4355783;32;71659;-63
2023/05/18 06:12:51;;;;;;;15.52;8.07;;;;;;;;;;4355600;32;68265;-62
2023/05/18 06:15:39;;;;;;;19.50;8.77;;;;;;;;;;4356082;32;66764;-61
2023/05/18 06:18:25;;;;;;;14.32;6.95;;;;;;;;;;4355890;32;72049;-62
2023/05/18 06:21:13;;;;;;;15.73;7.15;;;;;;;;;;4355610;32;67623;-62
2023/05/18 06:24:00;;;;;;;11.35;6.62;;;;;;;;;;4355846;32;67597;-61
2023/05/18 06:26:47;;;;;;;9.30;5.87;;;;;;;;;;4366512;32;59973;-61
2023/05/18 06:29:34;;;;;;;10.60;5.32;;;;;;;;;;4355758;32;69580;-60
2023/05/18 06:32:22;;;;;;;15.23;5.70;;;;;;;;;;4359004;32;66823;-61
2023/05/18 06:35:10;;;;;;;19.40;6.20;;;;;;;;;;4358612;32;66938;-61
2023/05/18 06:37:57;;;;;;;9.70;6.00;;;;;;;;;;4348261;32;60053;-61
2023/05/18 06:40:44;;;;;;;9.82;5.35;;;;;;;;;;4368827;32;69420;-62
2023/05/18 06:43:31;;;;;;;13.98;6.70;;;;;;;;;;4358180;32;69751;-62
2023/05/18 06:46:22;;;;;;;10.15;4.93;;;;;;;;;;4359025;32;67954;-61
2023/05/18 06:49:10;;;;;;;11.32;5.72;;;;;;;;;;4357815;32;72101;-61
2023/05/18 06:51:56;;;;;;;;;;;;;;;;;;4357959;32;65896;-61
2023/05/18 06:54:44;;;;;;;10.65;5.20;;;;;;;;;;4369306;32;67326;-62
2023/05/18 06:57:30;;;;;;;11.07;4.80;;;;;;;;;;4358251;32;67639;-61
2023/05/18 07:00:18;;;;;;;11.12;5.55;;;;;;;;;;4358003;32;70889;-61
2023/05/18 07:03:05;;;;;;;12.63;6.03;;;;;;;;;;4358275;32;65099;-61
2023/05/18 07:05:52;;;;;;;12.13;5.40;;;;;;;;;;4358300;32;67894;-62
2023/05/18 07:08:39;;;;;;;11.05;4.85;;;;;;;;;;4357918;32;61254;-61
2023/05/18 07:11:26;;;;;;;10.68;4.72;;;;;;;;;;4348070;32;70591;-62
2023/05/18 07:14:13;;;;;;;13.93;4.82;;;;;;;;;;4364200;32;69383;-62
2023/05/18 07:17:00;;;;;;;9.57;4.32;;;;;;;;;;4348001;32;66394;-61
2023/05/18 07:19:46;;;;;;;;;;;;;;;;;;4358402;32;72547;-61
2023/05/18 07:22:34;;;;;;;12.55;5.75;;;;;;;;;;4369819;32;69367;-62
2023/05/18 07:25:21;;;;;;;11.10;5.47;;;;;;;;;;4357756;32;68250;-62
2023/05/18 07:28:08;;;;;;;12.20;4.70;;;;;;;;;;4357956;32;67446;-62
2023/05/18 07:30:54;;;;;;;13.07;4.57;;;;;;;;;;4347135;32;71556;-62
2023/05/18 07:33:44;;;;;;;11.30;5.60;;;;;;;;;;4347579;32;66843;-62
2023/05/18 07:36:31;;;;;;;11.35;4.62;;;;;;;;;;4357949;32;67085;-61
2023/05/18 07:39:18;;;;;;;15.32;5.03;;;;;;;;;;4357816;32;60020;-61
2023/05/18 07:42:05;;;;;;;12.32;4.85;;;;;;;;;;4356979;32;70425;-62
2023/05/18 07:44:52;;;;;;;10.52;4.80;;;;;;;;;;4368224;32;69244;-62
2023/05/18 07:47:39;;;;;;;;;;;;;;;;;;4358064;32;67719;-61
2023/05/18 07:50:25;;;;;;;10.30;4.70;;;;;;;;;;4368806;32;58437;-62
2023/05/18 07:53:12;;;;;;;15.25;5.57;;;;;;;;;;4346550;32;69735;-61
2023/05/18 07:56:00;;;;;;;6.85;4.10;;;;;;;;;;4346620;32;68837;-61
2023/05/18 07:58:47;;;;;;;8.63;4.68;;;;;;;;;;4346502;32;68240;-61
2023/05/18 08:01:34;;;;;;;9.50;4.68;;;;;;;;;;4369093;32;71786;-61
2023/05/18 08:04:21;;;;;;;12.35;5.20;;;;;;;;;;4346400;32;67455;-62
2023/05/18 08:07:09;;;;;;;;;;;;;;;;;;4357890;32;67864;-61
2023/05/18 08:09:56;;;;;;;11.55;4.25;;;;;;;;;;4347638;32;67721;-61
2023/05/18 08:12:46;;;;;;;8.20;4.30;;;;;;;;;;4357257;32;71886;-61
2023/05/18 08:15:33;;;;;;;11.43;4.90;;;;;;;;;;4367742;32;65529;-63
2023/05/18 08:18:21;;;;;;;8.50;4.25;;;;;;;;;;4357201;32;67861;-62
2023/05/18 08:21:08;;;;;;;11.60;4.93;;;;;;;;;;4357378;32;59787;-62
2023/05/18 08:23:55;;;;;;;11.82;4.68;;;;;;;;;;4367444;32;69660;-62
2023/05/18 08:26:42;;;;;;;12.05;4.40;;;;;;;;;;4359740;32;68239;-61
2023/05/18 08:29:29;;;;;;;7.20;4.40;;;;;;;;;;4352751;32;67121;-61
2023/05/18 08:32:16;;;;;;;12.57;3.83;;;;;;;;;;4366212;32;72151;-64
2023/05/18 08:35:07;;;;;;;8.65;4.12;;;;;;;;;;4361659;32;69887;-61
2023/05/18 08:37:55;;;;;;;11.68;4.60;;;;;;;;;;4358268;32;68213;-62
2023/05/18 08:41:25;;;;;;;9.88;3.67;;;;;;;;;;4357738;32;68173;-62
2023/05/18 08:44:19;;;;;;;7.15;3.67;;;;;;;;;;4356961;32;72536;-61
2023/05/18 08:47:15;;;;;;;8.52;3.62;;;;;;;;;;4357397;32;65881;-61
2023/05/18 08:50:02;;;;;;;7.97;3.60;;;;;;;;;;4357084;32;69274;-61
2023/05/18 08:52:50;;;;;;;5.97;3.40;;;;;;;;;;4356842;32;60483;-61
2023/05/18 08:55:38;;;;;;;6.60;2.87;;;;;;;;;;4345988;32;70689;-62
2023/05/18 08:58:38;;;;;;;7.97;3.87;;;;;;;;;;4356619;32;69921;-61
2023/05/18 09:01:28;;;;;;;9.60;4.20;;;;;;;;;;4345650;32;66602;-61
2023/05/18 09:04:15;;;;;;;11.80;4.15;;;;;;;;;;4357175;32;60211;-62
2023/05/18 09:07:03;;;;;;;11.25;3.33;;;;;;;;;;4367256;32;69826;-61
2023/05/18 09:09:49;;;;;;;7.03;3.60;;;;;;;;;;4356480;32;69506;-62
2023/05/18 09:12:37;;;;;;;7.45;3.70;;;;;;;;;;4346420;32;67453;-61
2023/05/18 09:15:24;;;;;;;7.93;4.00;;;;;;;;;;4356791;32;71573;-60
2023/05/18 09:18:12;;;;;;;7.55;4.25;;;;;;;;;;4356782;32;66528;-61
2023/05/18 09:20:58;;;;;;;8.70;3.75;;;;;;;;;;4335240;32;68531;-61
2023/05/18 09:23:46;;;;;;;9.52;3.60;;;;;;;;;;4356459;32;57940;-61
2023/05/18 09:26:32;;;;;;;11.25;3.85;;;;;;;;;;4366801;32;71131;-61
2023/05/18 09:29:21;;;;;;;6.18;3.90;;;;;;;;;;4356702;32;66460;-62
2023/05/18 09:32:10;;;;;;;7.60;3.53;;;;;;;;;;4366993;32;67800;-61
2023/05/18 09:35:05;;;;;;;5.35;3.60;;;;;;;;;;4356072;32;61418;-61
2023/05/18 09:37:52;;;;;;;7.93;3.90;;;;;;;;;;4367039;32;69577;-62
2023/05/18 09:40:44;;;;;;;4.50;2.80;;;;;;;;;;4345940;32;69380;-60
2023/05/18 09:43:30;;;;;;;7.82;3.47;;;;;;;;;;4356301;32;66550;-62
2023/05/18 09:46:19;;;;;;;6.82;3.67;;;;;;;;;;4366813;32;70934;-61
2023/05/18 09:49:07;;;;;;;8.52;3.15;;;;;;;;;;4355610;32;66431;-64
2023/05/18 09:51:54;;;;;;;7.60;3.60;;;;;;;;;;4356702;32;70382;-63
2023/05/18 09:54:40;;;;;;;;;;;;;;;;;;4356212;32;68949;-63
2023/05/18 09:57:27;;;;;;;6.45;3.30;;;;;;;;;;4367840;32;71636;-69
2023/05/18 10:00:14;;;;;;;;;;;;;;;;;;4370755;32;65556;-62
2023/05/18 10:03:02;;;;;;;5.93;3.17;;;;;;;;;;4345996;32;68699;-64
2023/05/18 10:05:50;;;;;;;6.03;3.17;;;;;;;;;;4345549;32;59475;-65
2023/05/18 10:08:37;;;;;;;7.45;3.58;;;;;;;;;;4367971;32;69877;-63
2023/05/18 10:11:26;;;;;;;7.43;3.47;;;;;;;;;;4369760;32;69334;-66
2023/05/18 10:14:13;;;;;;;11.38;3.33;;;;;;;;;;4357118;32;67466;-75
2023/05/18 10:16:59;;;;;;;8.05;3.55;;;;;;;;;;4357036;32;59885;-69
2023/05/18 10:19:48;;;;;;;9.27;3.83;;;;;;;;;;4358639;32;70167;-68
2023/05/18 10:22:35;;;;;;;7.82;3.42;;;;;;;;;;4366426;32;68504;-70
2023/05/18 10:25:24;;;;;;;6.95;3.28;;;;;;;;;;4361158;32;67651;-71
2023/05/18 10:28:11;;;;;;;4.85;3.30;;;;;;;;;;4367877;32;71721;-70
2023/05/18 10:30:59;;;;;;;6.35;3.12;;;;;;;;;;4357222;32;66423;-71
2023/05/18 10:33:46;;;;;;;7.85;3.75;;;;;;;;;;4355423;32;68408;-71
2023/05/18 10:36:34;;;;;;;9.80;4.00;;;;;;;;;;4375843;32;58931;-67
2023/05/18 10:39:21;;;;;;;5.78;3.30;;;;;;;;;;4354960;32;72974;-65
2023/05/18 10:42:09;;;;;;;5.65;3.05;;;;;;;;;;4352691;32;65830;-65
2023/05/18 10:44:56;;;;;;;5.78;3.17;;;;;;;;;;4355891;32;66868;-66
2023/05/18 10:47:44;;;;;;;8.32;3.55;;;;;;;;;;4358228;32;59179;-67
2023/05/18 10:50:31;;;;;;;19.00;4.72;;;;;;;;;;4369832;32;70642;-69
2023/05/18 10:53:23;;;;;;;7.93;3.45;;;;;;;;;;4360199;32;70418;-69
2023/05/18 10:56:09;;;;;;;11.50;3.28;;;;;;;;;;4356819;32;66653;-66
2023/05/18 10:58:56;;;;;;;;;;;;;;;;;;4366568;32;70641;-66
2023/05/18 11:01:42;;;;;;;5.43;3.30;;;;;;;;;;4372254;32;66697;-66
2023/05/18 11:04:31;;;;;;;7.03;3.33;;;;;;;;;;4366629;32;69384;-66
2023/05/18 11:07:20;;;;;;;6.43;2.83;;;;;;;;;;4376572;32;67550;-70
2023/05/18 11:10:10;;;;;;;5.10;3.20;;;;;;;;;;4358994;32;71563;-69
2023/05/18 11:13:01;;;;;;;6.55;3.37;;;;;;;;;;4371619;32;66133;-69
2023/05/18 11:15:53;;;;;;;4.55;2.70;;;;;;;;;;4377199;32;67998;-70
2023/05/18 11:18:48;;;;;;;6.07;2.72;;;;;;;;;;4383071;32;59297;-69
2023/05/18 11:21:34;;;;;;;5.68;2.80;;;;;;;;;;4370004;32;70230;-71
2023/05/18 11:24:31;;;;;;;8.02;3.35;;;;;;;;;;4375327;32;69143;-70
2023/05/18 11:27:19;;;;;;;6.25;3.10;;;;;;;;;;4369425;32;68759;-71
2023/05/18 11:30:13;;;;;;;5.75;3.15;;;;;;;;;;4381338;32;60513;-73
2023/05/18 11:33:10;;;;;;;6.40;2.97;;;;;;;;;;4370797;32;70924;-73
2023/05/18 11:36:14;;;;;;;7.68;3.45;;;;;;;;;;4382793;32;68193;-72
2023/05/18 11:39:09;;;;;;;9.07;3.00;;;;;;;;;;4355188;32;68479;-73
2023/05/18 11:42:08;;;;;;;6.72;3.45;;;;;;;;;;4368132;32;70934;-70
2023/05/18 11:44:55;;;;;;;4.20;2.97;;;;;;;;;;4377233;32;66407;-70
2023/05/18 11:47:42;;;;;;;7.47;3.55;;;;;;;;;;4367828;32;67716;-69
2023/05/18 11:50:31;;;;;;;5.90;3.45;;;;;;;;;;4367695;32;60150;-69
2023/05/18 11:53:17;;;;;;;6.47;3.12;;;;;;;;;;4372531;32;71801;-66
2023/05/18 11:56:05;;;;;;;5.62;2.70;;;;;;;;;;4358883;32;67640;-71
2023/05/18 11:59:10;;;;;;;;;;;;;;;;;;4379362;32;68098;-69
2023/05/18 12:02:01;;;;;;;10.43;3.90;;;;;;;;;;4371800;32;58871;-72
2023/05/18 12:04:53;;;;;;;9.27;3.20;;;;;;;;;;4356621;32;71359;-67
2023/05/18 12:07:40;;;;;;;4.75;3.22;;;;;;;;;;4372926;32;68586;-73
2023/05/18 12:10:27;;;;;;;5.85;3.35;;;;;;;;;;4369896;32;67645;-71
2023/05/18 12:13:17;;;;;;;5.95;3.05;;;;;;;;;;4377358;32;71799;-66
2023/05/18 12:16:04;;;;;;;5.22;3.12;;;;;;;;;;4366910;32;65481;-68
2023/05/18 12:18:51;;;;;;;5.87;2.53;;;;;;;;;;4368473;32;67268;-73
2023/05/18 12:21:38;;;;;;;9.50;3.17;;;;;;;;;;4370850;32;67997;-72
2023/05/18 12:24:24;;;;;;;;;;;;;;;;;;4373276;32;71873;-67
2023/05/18 12:27:12;;;;;;;6.57;3.00;;;;;;;;;;4374671;32;66108;-68
2023/05/18 12:29:58;;;;;;;4.95;2.90;;;;;;;;;;4377619;32;68646;-66
2023/05/18 12:32:53;;;;;;;5.50;3.00;;;;;;;;;;4373034;32;58891;-69
2023/05/18 12:35:40;;;;;;;8.02;3.17;;;;;;;;;;4368026;32;69706;-72
2023/05/18 12:38:27;;;;;;;6.00;3.53;;;;;;;;;;4374178;32;68281;-67
2023/05/18 12:41:20;;;;;;;;;;;;;;;;;;4380379;32;68144;-66
2023/05/18 12:44:07;;;;;;;7.40;2.92;;;;;;;;;;4355714;32;59513;-64
2023/05/18 12:46:54;;;;;;;;;;;;;;;;;;4366615;32;69406;-63
2023/05/18 12:49:42;;;;;;;5.07;2.83;;;;;;;;;;4354419;32;69937;-66
2023/05/18 12:52:29;;;;;;;8.38;2.80;;;;;;;;;;4375334;32;67631;-65
2023/05/18 12:55:20;;;;;;;5.53;2.90;;;;;;;;;;4354119;32;72332;-64
2023/05/18 12:58:14;;;;;;;5.25;2.78;;;;;;;;;;4375742;32;65404;-64
2023/05/18 13:01:08;;;;;;;4.78;2.72;;;;;;;;;;4365939;32;67937;-64
2023/05/18 13:03:58;;;;;;;6.00;3.25;;;;;;;;;;4368080;32;59333;-63
2023/05/18 13:06:45;;;;;;;6.10;3.00;;;;;;;;;;4378010;32;69627;-64
2023/05/18 13:09:31;;;;;;;4.45;2.85;;;;;;;;;;4378304;32;66778;-63
2023/05/18 13:12:19;;;;;;;4.25;2.95;;;;;;;;;;4356532;32;68306;-64
2023/05/18 13:15:09;;;;;;;;;;;;;;;;;;4356827;32;60819;-64
2023/05/18 13:17:59;;;;;;;8.02;3.65;;;;;;;;;;4357001;32;70426;-64
2023/05/18 13:20:49;;;;;;;7.47;3.12;;;;;;;;;;4367291;32;69281;-63
2023/05/18 13:23:37;;;;;;;6.05;3.17;;;;;;;;;;4356138;32;68249;-63
2023/05/18 13:26:25;;;;;;;5.05;3.10;;;;;;;;;;4356242;32;72112;-64
2023/05/18 13:29:12;;;;;;;5.97;3.22;;;;;;;;;;4367231;32;67019;-64
2023/05/18 13:31:58;;;;;;;5.72;3.30;;;;;;;;;;4367018;32;68859;-63
2023/05/18 13:34:45;;;;;;;6.65;3.75;;;;;;;;;;4378381;32;67850;-64
2023/05/18 13:37:31;;;;;;;;;;;;;;;;;;4367441;32;71810;-65
2023/05/18 13:40:19;;;;;;;5.45;3.60;;;;;;;;;;4369055;32;65734;-61
2023/05/18 13:43:06;;;;;;;6.62;3.28;;;;;;;;;;4367592;32;66132;-63
2023/05/18 13:45:53;;;;;;;7.55;3.58;;;;;;;;;;4367553;32;60392;-61
2023/05/18 13:48:40;;;;;;;4.70;2.83;;;;;;;;;;4367888;32;70489;-64
2023/05/18 13:51:26;;;;;;;7.68;3.45;;;;;;;;;;4367174;32;68487;-64
2023/05/18 13:54:15;;;;;;;6.75;3.60;;;;;;;;;;4366859;32;67589;-63
2023/05/18 13:57:02;;;;;;;6.03;3.50;;;;;;;;;;4367013;32;71194;-64
2023/05/18 13:59:49;;;;;;;8.48;3.50;;;;;;;;;;4367974;32;70891;-64
2023/05/18 14:02:36;;;;;;;5.90;3.55;;;;;;;;;;4356198;32;68804;-63
2023/05/18 14:05:24;;;;;;;5.25;3.20;;;;;;;;;;4367046;32;67275;-65
2023/05/18 14:08:10;;;;;;;7.00;3.40;;;;;;;;;;4367350;32;71945;-62
2023/05/18 14:10:56;;;;;;;5.53;3.22;;;;;;;;;;4366854;32;66980;-62
2023/05/18 14:13:43;;;;;;;;;;;;;;;;;;4366759;32;66892;-61
2023/05/18 14:16:30;;;;;;;7.20;3.87;;;;;;;;;;4367650;32;59481;-61
2023/05/18 14:19:16;;;;;;;;;;;;;;;;;;4357181;32;71370;-65
2023/05/18 14:22:03;;;;;;;8.52;3.40;;;;;;;;;;4357609;32;69841;-62
2023/05/18 14:24:50;;;;;;;6.40;3.45;;;;;;;;;;4367274;32;66935;-63
2023/05/18 14:27:37;;;;;;;6.68;3.22;;;;;;;;;;4367092;32;60457;-62
2023/05/18 14:30:24;;;;;;;5.68;3.25;;;;;;;;;;4367588;32;70651;-64
2023/05/18 14:33:11;;;;;;;7.80;3.20;;;;;;;;;;4379575;32;69173;-62
2023/05/18 14:35:58;;;;;;;8.32;4.32;;;;;;;;;;4367213;32;66813;-63
2023/05/18 14:38:45;;;;;;;5.68;3.67;;;;;;;;;;4356659;32;72279;-63
2023/05/18 14:41:31;;;;;;;6.70;3.40;;;;;;;;;;4366455;32;66146;-61
2023/05/18 14:44:18;;;;;;;5.25;3.10;;;;;;;;;;4356444;32;65515;-63
2023/05/18 14:47:05;;;;;;;;;;;;;;;;;;4367687;32;60120;-63
2023/05/18 14:49:51;;;;;;;6.22;3.60;;;;;;;;;;4369836;32;71529;-64
2023/05/18 14:52:38;;;;;;;;;;;;;;;;;;4368615;32;66246;-62
2023/05/18 14:55:25;;;;;;;6.03;3.58;;;;;;;;;;4369449;32;67949;-62
2023/05/18 14:58:13;;;;;;;;;;;;;;;;;;4369799;32;60013;-64
2023/05/18 15:01:00;;;;;;;4.97;3.40;;;;;;;;;;4369397;32;70006;-62
2023/05/18 15:03:47;;;;;;;;;;;;;;;;;;4369487;32;69276;-63
2023/05/18 15:06:36;;;;;;;9.90;3.50;;;;;;;;;;4368761;32;67614;-63
2023/05/18 15:09:22;;;;;;;5.85;3.40;;;;;;;;;;4379536;32;71898;-62
2023/05/18 15:12:09;;;;;;;8.80;3.40;;;;;;;;;;4369376;32;69688;-63
2023/05/18 15:14:56;;;;;;;10.90;4.15;;;;;;;;;;4373005;32;69492;-62
2023/05/18 15:17:43;;;;;;;5.22;3.20;;;;;;;;;;4374847;32;67845;-63
2023/05/18 15:20:30;;;;;;;5.62;3.22;;;;;;;;;;4384813;32;70846;-63
2023/05/18 15:23:17;;;;;;;7.82;3.67;;;;;;;;;;4374619;32;67296;-65
2023/05/18 15:26:03;;;;;;;6.60;3.55;;;;;;;;;;4359689;32;67482;-62
2023/05/18 15:28:50;;;;;;;;;;;;;;;;;;4369538;32;60457;-63
2023/05/18 15:31:38;;;;;;;5.00;3.55;;;;;;;;;;4368764;32;69330;-62
2023/05/18 15:34:25;;;;;;;6.35;3.15;;;;;;;;;;4358124;32;69007;-63
2023/05/18 15:37:11;;;;;;;6.97;3.40;;;;;;;;;;4368620;32;67061;-63
2023/05/18 15:39:58;;;;;;;4.62;3.25;;;;;;;;;;4358894;32;57843;-62
2023/05/18 15:42:44;;;;;;;7.95;3.10;;;;;;;;;;4368821;32;70633;-63
2023/05/18 15:45:31;;;;;;;6.37;3.33;;;;;;;;;;4357664;32;68805;-63
2023/05/18 15:48:17;;;;;;;;;;;;;;;;;;4369186;32;67326;-61
2023/05/18 15:51:04;;;;;;;7.57;3.37;;;;;;;;;;4368567;32;71948;-64
2023/05/18 15:53:51;;;;;;;6.00;3.28;;;;;;;;;;4368418;32;66834;-62
2023/05/18 15:56:37;;;;;;;;;;;;;;;;;;4370294;32;68204;-63
2023/05/18 15:59:24;;;;;;;5.62;2.85;;;;;;;;;;4374671;32;59100;-64
2023/05/18 16:02:10;;;;;;;6.60;3.17;;;;;;;;;;4369773;32;70844;-62
2023/05/18 16:04:58;;;;;;;5.78;3.45;;;;;;;;;;4368064;32;66585;-64
2023/05/18 16:07:45;;;;;;;5.22;3.22;;;;;;;;;;4368232;32;67981;-64
2023/05/18 16:10:31;;;;;;;5.37;2.87;;;;;;;;;;4369578;32;59347;-64
2023/05/18 16:13:18;;;;;;;5.57;3.42;;;;;;;;;;4378453;32;70762;-64
2023/05/18 16:16:08;;;;;;;6.25;3.37;;;;;;;;;;4368121;32;68320;-64
2023/05/18 16:18:55;;;;;;;10.50;3.83;;;;;;;;;;4367660;32;68277;-66
2023/05/18 16:21:42;;;;;;;;;;;;;;;;;;4368262;32;71619;-64
2023/05/18 16:24:28;;;;;;;5.50;3.58;;;;;;;;;;4369822;32;65888;-64
2023/05/18 16:27:15;;;;;;;;;;;;;;;;;;4368113;32;69536;-65
2023/05/18 16:30:02;;;;;;;8.27;4.03;;;;;;;;;;4367790;32;68197;-63
2023/05/18 16:32:49;;;;;;;7.50;3.60;;;;;;;;;;4378389;32;71843;-63
2023/05/18 16:35:35;;;;;;;5.87;3.50;;;;;;;;;;4367885;32;65377;-65
2023/05/18 16:38:22;;;;;;;10.82;4.93;;;;;;;;;;4356902;32;68826;-64
2023/05/18 16:41:09;;;;;;;;;;;;;;;;;;4357711;32;60611;-62
2023/05/18 16:43:55;;;;;;;7.95;4.20;;;;;;;;;;4369303;32;70245;-64
2023/05/18 16:46:42;;;;;;;6.65;3.75;;;;;;;;;;4378798;32;68101;-63
2023/05/18 16:49:29;;;;;;;;;;;;;;;;;;4359197;32;68502;-62